Latest Weather Observations for East Sale

IDV60801

Issued at 7:35 pm EST Thursday 17 April 2014 (issued every 30 minutes, with the page automatically refreshed every 10 minutes)

About weather observations | Map of weather stations | Latest weather observations for VIC | Other Formats
Station Details ID: 085072 Name: EAST SALE AIRPORT Lat: -38.12 Lon: 147.13 Height: 4.6 m
Data from the previous 72 hours. | See also: Recent months at East Sale
Date/Time
EST
Temp
°C
App
Temp
°C
Dew
Point
Rel
Hum
%
Delta-T
°C
Wind Press
QNH
hPa
Press
MSL
hPa
Rain
since 9 am
mm
Dir
 
Spd
km/h
Gust
km/h
Spd
kts
Gust
kts
17/07:30pm 13.9 13.4 12.6 92 0.7 ENE 7 11 4 6 1019.1 - 0.0
17/07:00pm 13.8 12.7 12.1 89 0.9 ENE 9 11 5 6 1019.1 - 0.0
17/06:30pm 14.4 13.5 12.6 89 1.0 E 9 13 5 7 1019.0 - 0.0
17/06:00pm 15.3 14.2 13.1 87 1.2 ENE 11 13 6 7 1019.0 1019.0 0.0
17/05:30pm 16.7 14.8 13.1 79 2.0 ENE 15 17 8 9 1018.8 - 0.0
17/05:00pm 18.6 16.3 13.1 70 3.1 E 17 20 9 11 1018.6 - 0.0
17/04:30pm 19.8 17.0 11.2 57 4.7 E 17 19 9 10 1018.5 - 0.0
17/04:00pm 20.5 18.6 11.7 57 4.9 ENE 13 15 7 8 1018.7 - 0.0
17/03:30pm 20.9 19.2 11.1 53 5.4 ESE 11 15 6 8 1019.1 - 0.0
17/03:00pm 21.9 21.0 10.8 49 6.1 N 6 11 3 6 1019.2 1019.2 0.0
17/02:30pm 20.8 19.7 9.8 49 5.9 NE 6 9 3 5 1019.3 - 0.0
17/02:00pm 21.1 19.7 8.8 45 6.5 NNE 6 9 3 5 1019.6 - 0.0
17/01:30pm 21.2 20.2 11.0 52 5.6 NW 7 13 4 7 1019.8 - 0.0
17/01:00pm 20.0 19.4 11.7 59 4.6 NNW 6 13 3 7 1020.1 - 0.0
17/12:30pm 19.7 19.0 12.0 61 4.3 WNW 7 11 4 6 1020.6 - 0.0
17/12:00pm 19.3 18.7 12.3 64 3.9 N 7 9 4 5 1020.9 1020.9 0.0
17/11:30am 18.6 17.9 12.1 66 3.6 NW 7 11 4 6 1021.4 - 0.0
17/11:00am 18.1 16.9 11.5 65 3.6 NNW 9 15 5 8 1021.6 - 0.0
17/10:30am 16.8 15.7 12.1 74 2.6 NW 9 13 5 7 1021.7 - 0.0
17/10:00am 15.5 14.4 11.8 78 2.0 WNW 9 13 5 7 1021.8 - 0.0
17/09:30am 14.1 12.7 10.9 81 1.7 WNW 9 13 5 7 1022.0 - 0.0
17/09:00am 12.9 11.8 10.8 87 1.1 WNW 7 11 4 6 1022.1 1022.1 0.0
17/08:30am 10.6 8.5 9.8 95 0.4 WNW 11 13 6 7 1022.0 - 0.0
17/08:00am 9.8 8.3 9.0 95 0.4 NNW 7 9 4 5 1022.0 - 0.0
17/07:39am 8.7 8.3 8.1 96 0.3 CALM 0 0 0 0 1021.8 - 0.0
17/07:37am 8.4 7.9 8.0 97 0.2 CALM 0 0 0 0 1021.7 - 0.0
17/07:36am 8.4 7.9 8.0 97 0.2 CALM 0 0 0 0 1021.7 - 0.0
17/07:30am 7.8 7.2 7.2 96 0.3 CALM 0 0 0 0 1021.7 - 0.0
17/07:18am 7.1 6.1 5.8 91 0.6 CALM 0 0 0 0 1021.5 - 0.0
17/07:16am 6.8 5.8 5.7 93 0.5 CALM 0 2 0 1 1021.5 - 0.0
17/07:15am 6.8 5.8 5.7 93 0.5 CALM 0 2 0 1 1021.5 - 0.0
17/07:10am 6.6 5.2 5.7 94 0.4 NNW 2 6 1 3 1021.4 - 0.0
17/07:07am 6.5 4.9 6.3 99 0.1 NNW 4 7 2 4 1021.3 - 0.0
17/07:01am 6.8 4.9 6.6 99 0.1 NW 6 7 3 4 1021.2 - 0.0
17/07:00am 6.9 5.0 6.5 97 0.2 NW 6 7 3 4 1021.1 - 0.0
17/06:57am 6.8 4.8 6.1 95 0.3 NW 6 7 3 4 1021.1 - 0.0
17/06:54am 6.8 4.8 6.4 97 0.2 NW 6 7 3 4 1021.1 - 0.0
17/06:53am 6.8 4.8 6.4 97 0.2 NW 6 7 3 4 1021.1 - 0.0
17/06:51am 6.7 4.8 6.5 99 0.1 NW 6 7 3 4 1021.0 - 0.0
17/06:30am 6.5 3.5 6.1 97 0.2 NW 11 11 6 6 1020.7 - 0.0
17/06:29am 6.5 3.5 6.1 97 0.2 NW 11 11 6 6 1020.7 - 0.0
17/06:28am 6.5 3.5 6.1 97 0.2 NW 11 11 6 6 1020.7 - 0.0
17/06:27am 6.5 3.5 6.1 97 0.2 NW 11 11 6 6 1020.7 - 0.0
17/06:00am 6.4 4.4 6.2 99 0.1 NW 6 7 3 4 1020.6 1020.6 0.0
17/05:56am 6.6 4.6 6.4 99 0.1 NW 6 7 3 4 1020.6 - 0.0
17/05:55am 6.6 4.6 6.4 99 0.1 NW 6 7 3 4 1020.6 - 0.0
17/05:30am 7.5 5.5 7.1 97 0.2 NW 7 11 4 6 1020.6 - 0.0
17/05:00am 7.3 4.1 6.9 97 0.2 WNW 13 15 7 8 1020.4 - 0.0
17/04:50am 7.0 4.1 6.6 97 0.2 WNW 11 13 6 7 1020.4 - 0.0
17/04:49am 7.0 4.1 6.6 97 0.2 WNW 11 13 6 7 1020.4 - 0.0
17/04:34am 7.2 4.4 7.0 99 0.1 WNW 11 13 6 7 1020.3 - 0.0
17/04:33am 7.2 4.4 7.0 99 0.1 WNW 11 13 6 7 1020.3 - 0.0
17/04:31am 7.1 4.3 6.9 99 0.1 W 11 13 6 7 1020.3 - 0.0
17/04:30am 7.0 4.2 6.8 99 0.1 W 11 13 6 7 1020.4 - 0.0
17/04:24am 7.1 4.7 6.9 99 0.1 W 9 11 5 6 1020.4 - 0.0
17/04:23am 7.1 4.7 6.9 99 0.1 W 9 11 5 6 1020.4 - 0.0
17/04:04am 7.3 4.8 6.6 95 0.3 WNW 9 13 5 7 1020.1 - 0.0
17/04:00am 7.2 4.4 7.0 99 0.1 WNW 11 13 6 7 1020.1 - 0.0
17/03:47am 7.1 4.3 6.9 99 0.1 WNW 11 11 6 6 1020.1 - 0.0
17/03:33am 7.5 5.5 7.3 99 0.1 NNW 7 9 4 5 1020.0 - 0.0
17/03:30am 7.4 5.5 6.7 95 0.3 NNW 6 9 3 5 1019.9 - 0.0
17/03:29am 7.4 5.5 6.7 95 0.3 NNW 6 9 3 5 1019.9 - 0.0
17/03:26am 7.1 5.3 7.1 100 0.0 NNW 6 7 3 4 1019.9 - 0.0
17/03:18am 7.9 6.2 7.5 97 0.2 NW 6 7 3 4 1019.8 - 0.0
17/03:17am 7.9 6.2 7.5 97 0.2 NW 6 7 3 4 1019.8 - 0.0
17/03:00am 7.9 6.0 7.5 97 0.2 NW 7 11 4 6 1020.0 1020.0 0.0
17/02:30am 8.1 7.2 7.9 99 0.1 SSW 2 9 1 5 1020.1 - 0.0
17/02:00am 8.3 7.8 7.9 97 0.2 CALM 0 0 0 0 1020.2 - 0.0
17/01:31am 8.8 8.1 8.4 97 0.2 S 2 6 1 3 1020.3 - 0.0
17/01:30am 8.8 7.7 8.6 99 0.1 S 4 7 2 4 1020.3 - 0.0
17/01:07am 8.6 8.2 8.4 99 0.1 CALM 0 0 0 0 1020.5 - 0.0
17/01:06am 8.6 8.2 8.4 99 0.1 CALM 0 0 0 0 1020.5 - 0.0
17/01:00am 9.0 8.7 8.6 97 0.2 CALM 0 6 0 3 1020.4 - 0.0
17/12:47am 8.9 7.4 8.5 97 0.2 SW 6 7 3 4 1020.5 - 0.0
17/12:46am 8.9 7.4 8.5 97 0.2 SW 6 7 3 4 1020.5 - 0.0
17/12:30am 8.9 7.4 8.5 97 0.2 WSW 6 7 3 4 1020.5 - 0.0
17/12:00am 9.2 7.8 8.8 97 0.2 WSW 6 7 3 4 1020.7 1020.7 0.0
 
Date/Time
EST
Temp
°C
App
Temp
°C
Dew
Point
Rel
Hum
%
Delta-T
°C
Wind Press
QNH
hPa
Press
MSL
hPa
Rain
since 9 am
mm
Dir
 
Spd
km/h
Gust
km/h
Spd
kts
Gust
kts
16/11:30pm 10.0 9.9 9.6 97 0.2 CALM 0 0 0 0 1020.8 - 0.0
16/11:00pm 9.9 9.8 9.3 96 0.3 CALM 0 0 0 0 1020.9 - 0.0
16/10:30pm 10.2 10.1 9.6 96 0.3 CALM 0 0 0 0 1021.1 - 0.0
16/10:00pm 10.1 10.0 9.3 95 0.4 CALM 0 0 0 0 1021.2 - 0.0
16/09:30pm 10.6 9.8 9.6 93 0.5 W 4 6 2 3 1021.5 - 0.0
16/09:00pm 10.9 10.9 9.7 92 0.6 CALM 0 0 0 0 1021.3 1021.3 0.0
16/08:30pm 11.1 11.1 9.7 91 0.7 CALM 0 0 0 0 1021.1 - 0.0
16/08:00pm 12.0 10.9 10.0 87 1.0 E 6 7 3 4 1020.7 - 0.0
16/07:30pm 12.6 11.3 10.1 85 1.3 ESE 7 9 4 5 1020.6 - 0.0
16/07:00pm 12.8 11.2 10.1 84 1.4 ESE 9 11 5 6 1020.6 - 0.0
16/06:30pm 13.1 10.8 10.4 84 1.4 ESE 13 15 7 8 1020.3 - 0.0
16/06:00pm 13.6 11.3 10.3 80 1.7 ESE 13 15 7 8 1020.0 1020.0 0.0
16/05:30pm 15.2 12.8 10.0 71 2.7 E 13 15 7 8 1019.8 - 0.0
16/05:00pm 16.8 13.0 9.1 60 4.0 E 19 22 10 12 1019.5 - 0.0
16/04:30pm 17.8 14.1 9.6 58 4.3 E 19 22 10 12 1019.3 - 0.0
16/04:00pm 18.3 14.9 9.3 55 4.7 E 17 20 9 11 1019.4 - 0.0
16/03:30pm 18.4 15.0 9.0 54 4.9 E 17 24 9 13 1019.4 - 0.0
16/03:00pm 18.2 14.2 9.0 55 4.8 E 20 24 11 13 1019.4 1019.4 0.0
16/02:30pm 18.8 15.1 9.5 54 4.9 E 19 22 10 12 1019.5 - 0.0
16/02:00pm 18.9 14.9 9.0 52 5.2 E 20 26 11 14 1019.5 - 0.0
16/01:30pm 18.5 15.1 9.1 54 4.9 E 17 24 9 13 1019.6 - 0.0
16/01:00pm 18.8 15.6 8.6 51 5.3 ENE 15 22 8 12 1020.0 - 0.0
16/12:30pm 18.1 15.2 9.5 57 4.5 E 15 22 8 12 1020.5 - 0.0
16/12:00pm 17.9 15.3 9.3 57 4.5 E 13 19 7 10 1021.0 1021.0 0.0
16/11:30am 17.5 14.2 9.5 59 4.2 E 17 22 9 12 1021.3 - 0.0
16/11:00am 16.5 15.1 12.3 76 2.3 SE 11 17 6 9 1021.5 - 0.0
16/10:30am 16.1 15.8 12.7 80 1.9 E 6 11 3 6 1021.9 - 0.0
16/10:00am 14.4 14.3 12.2 87 1.2 NNW 4 7 2 4 1022.1 - 0.0
16/09:30am 13.5 13.6 11.6 88 1.0 W 2 6 1 3 1022.4 - 0.0
16/09:00am 11.6 10.8 11.2 97 0.2 WNW 6 7 3 4 1022.7 1022.7 1.0
16/08:31am 10.5 9.4 10.1 97 0.2 W 6 9 3 5 1022.9 - 1.0
16/08:30am 10.4 9.3 10.0 97 0.2 W 6 9 3 5 1022.8 - 1.0
16/08:27am 10.3 9.2 9.9 97 0.2 W 6 9 3 5 1022.8 - 1.0
16/08:00am 9.5 9.4 9.3 99 0.1 CALM 0 0 0 0 1022.7 - 1.0
16/07:45am 9.4 9.2 9.2 99 0.1 CALM 0 0 0 0 1022.8 - 1.0
16/07:42am 9.4 9.2 9.0 97 0.2 CALM 0 0 0 0 1022.7 - 1.0
16/07:30am 8.9 8.2 8.7 99 0.1 SW 2 6 1 3 1022.6 - 1.0
16/07:00am 6.6 4.6 6.4 99 0.1 NW 6 7 3 4 1022.4 - 1.0
16/06:30am 7.1 5.0 6.7 97 0.2 NW 7 9 4 5 1022.3 - 1.0
16/06:06am 6.9 4.4 6.7 99 0.1 NW 9 13 5 7 1022.4 - 0.8
16/06:00am 6.7 4.6 6.5 99 0.1 NW 7 7 4 4 1022.3 1022.3 0.8
16/05:39am 6.8 5.3 6.6 99 0.1 WNW 4 7 2 4 1022.2 - 0.8
16/05:38am 6.8 5.3 6.6 99 0.1 NNW 4 7 2 4 1022.2 - 0.8
16/05:30am 7.0 6.3 6.8 99 0.1 CALM 0 0 0 0 1022.1 - 0.8
16/05:01am 7.5 6.9 7.3 99 0.1 CALM 0 0 0 0 1022.0 - 0.8
16/05:00am 7.5 6.9 7.3 99 0.1 CALM 0 0 0 0 1022.0 - 0.8
16/04:39am 7.3 6.6 7.1 99 0.1 CALM 0 0 0 0 1022.0 - 0.8
16/04:38am 7.4 6.8 7.2 99 0.1 CALM 0 0 0 0 1022.0 - 0.8
16/04:37am 7.5 6.9 7.3 99 0.1 CALM 0 0 0 0 1022.0 - 0.8
16/04:30am 7.6 7.0 7.4 99 0.1 CALM 0 0 0 0 1022.0 - 0.8
16/04:00am 8.2 7.7 8.0 99 0.1 CALM 0 0 0 0 1022.1 - 0.8
16/03:51am 8.1 7.6 7.9 99 0.1 CALM 0 0 0 0 1022.1 - 0.8
16/03:48am 8.2 7.7 7.8 97 0.2 CALM 0 0 0 0 1022.0 - 0.8
16/03:47am 8.2 7.7 7.8 97 0.2 CALM 0 0 0 0 1022.0 - 0.8
16/03:35am 8.4 7.9 8.0 97 0.2 CALM 0 0 0 0 1021.9 - 0.8
16/03:34am 8.4 7.9 8.0 97 0.2 CALM 0 0 0 0 1021.9 - 0.8
16/03:30am 8.4 7.9 7.8 96 0.3 CALM 0 0 0 0 1022.0 - 0.8
16/03:00am 8.6 7.5 8.4 99 0.1 SW 4 6 2 3 1022.2 1022.2 0.8
16/02:39am 9.1 7.7 8.9 99 0.1 SW 6 6 3 3 1022.4 - 0.8
16/02:38am 9.1 7.7 8.9 99 0.1 SW 6 6 3 3 1022.4 - 0.8
16/02:30am 9.0 7.4 8.6 97 0.2 SSW 7 9 4 5 1022.5 - 0.8
16/02:10am 9.6 9.1 9.4 99 0.1 SSW 2 9 1 5 1022.9 - 0.8
16/02:00am 9.9 9.8 9.5 97 0.2 CALM 0 0 0 0 1023.0 - 0.8
16/01:56am 9.9 9.8 9.5 97 0.2 CALM 0 0 0 0 1023.0 - 0.8
16/01:46am 9.9 9.8 9.5 97 0.2 CALM 0 0 0 0 1023.0 - 0.8
16/01:42am 9.8 9.6 9.2 96 0.3 CALM 0 0 0 0 1023.0 - 0.8
16/01:30am 9.8 9.7 9.4 97 0.2 CALM 0 0 0 0 1023.2 - 0.8
16/01:27am 9.8 9.7 9.4 97 0.2 CALM 0 0 0 0 1023.2 - 0.8
16/01:26am 9.9 9.8 9.5 97 0.2 CALM 0 0 0 0 1023.2 - 0.8
16/01:06am 10.4 10.5 10.0 97 0.2 CALM 0 0 0 0 1023.3 - 0.8
16/01:05am 10.5 10.5 9.9 96 0.3 CALM 0 0 0 0 1023.3 - 0.8
16/01:00am 10.4 10.5 10.0 97 0.2 CALM 0 0 0 0 1023.3 - 0.8
16/12:35am 11.1 11.3 10.7 97 0.2 CALM 0 0 0 0 1023.3 - 0.8
16/12:30am 11.2 11.5 10.8 97 0.2 CALM 0 0 0 0 1023.4 - 0.8
16/12:24am 11.5 11.9 11.1 97 0.2 CALM 0 6 0 3 1023.4 - 0.8
16/12:14am 11.8 11.0 11.2 96 0.3 SSW 6 7 3 4 1023.6 - 0.8
16/12:13am 11.8 11.0 11.2 96 0.3 SSW 6 7 3 4 1023.6 - 0.8
16/12:09am 11.8 11.1 11.4 97 0.2 SSW 6 7 3 4 1023.7 - 0.8
16/12:01am 12.2 11.4 11.6 96 0.3 SSW 7 7 4 4 1023.8 - 0.8
16/12:00am 12.3 11.4 11.5 95 0.4 SSW 7 7 4 4 1023.8 1023.8 0.8
 
Date/Time
EST
Temp
°C
App
Temp
°C
Dew
Point
Rel
Hum
%
Delta-T
°C
Wind Press
QNH
hPa
Press
MSL
hPa
Rain
since 9 am
mm
Dir
 
Spd
km/h
Gust
km/h
Spd
kts
Gust
kts
15/11:30pm 13.1 12.7 12.5 96 0.3 SW 6 7 3 4 1024.2 - 0.8
15/11:00pm 13.4 13.5 12.7 95 0.4 NNW 4 6 2 3 1024.4 - 0.8
15/10:30pm 13.7 13.5 13.0 96 0.4 NNW 6 6 3 3 1024.5 - 0.8
15/10:00pm 13.9 14.8 13.0 94 0.5 CALM 0 0 0 0 1024.6 - 0.8
15/09:30pm 13.8 14.8 13.1 96 0.4 CALM 0 0 0 0 1024.7 - 0.8
15/09:01pm 13.9 14.9 13.2 96 0.4 CALM 0 0 0 0 1024.8 - 0.8
15/09:00pm 13.9 14.8 13.0 94 0.5 CALM 0 0 0 0 1024.8 1024.8 0.8
15/08:30pm 14.1 15.1 13.2 94 0.5 CALM 0 0 0 0 1024.5 - 0.8
15/08:00pm 14.3 15.2 13.0 92 0.7 CALM 0 0 0 0 1024.4 - 0.8
15/07:30pm 14.4 15.4 13.1 92 0.7 CALM 0 4 0 2 1024.4 - 0.8
15/07:00pm 14.5 14.4 13.4 93 0.6 N 6 6 3 3 1024.2 - 0.8
15/06:30pm 14.6 14.3 13.2 91 0.8 ENE 7 9 4 5 1023.9 - 0.8
15/06:01pm 14.6 13.8 13.0 90 0.9 E 9 9 5 5 1023.7 - 0.8
15/06:00pm 14.5 13.7 12.9 90 0.9 E 9 9 5 5 1023.7 1023.7 0.8
15/05:30pm 14.8 14.0 13.0 89 1.0 NNE 9 11 5 6 1023.5 - 0.8
15/05:00pm 14.8 13.4 13.4 91 0.8 ENE 13 15 7 8 1023.4 - 0.8
15/04:30pm 15.0 12.8 13.2 89 1.0 ENE 17 20 9 11 1023.5 - 0.8
15/04:00pm 16.7 15.0 12.5 76 2.3 ENE 13 15 7 8 1023.3 - 0.6
15/03:30pm 16.9 14.8 12.4 75 2.5 NE 15 20 8 11 1023.3 - 0.6
15/03:01pm 16.8 14.4 12.5 76 2.4 NE 17 20 9 11 1023.3 - 0.6
15/03:00pm 16.8 14.7 12.3 75 2.5 NE 15 20 8 11 1023.3 1023.3 0.6
15/02:30pm 16.9 14.4 12.4 75 2.5 ENE 17 19 9 10 1023.3 - 0.6
15/02:00pm 16.1 13.5 12.1 77 2.2 ESE 17 20 9 11 1023.3 - 0.6
15/01:30pm 15.0 14.1 12.6 85 1.3 SE 9 15 5 8 1023.6 - 0.6
15/01:00pm 14.7 11.7 12.5 87 1.2 SE 20 26 11 14 1023.8 - 0.6
15/12:30pm 16.8 15.1 12.5 76 2.4 ESE 13 19 7 10 1023.9 - 0.6
15/12:01pm 16.6 15.5 11.8 73 2.6 SE 9 15 5 8 1024.1 - 0.6
15/12:00pm 16.6 15.4 11.6 72 2.7 SE 9 15 5 8 1024.2 1024.2 0.6
15/11:30am 16.9 16.2 12.0 73 2.7 WNW 7 11 4 6 1024.5 - 0.6
15/11:00am 15.1 13.8 11.2 77 2.1 W 9 11 5 6 1024.7 - 0.6
15/10:30am 14.4 13.5 10.8 79 1.9 NW 6 9 3 5 1024.7 - 0.6
15/10:00am 14.4 12.1 10.6 78 2.0 WNW 13 17 7 9 1024.8 - 0.0
15/09:30am 14.2 12.2 10.2 77 2.1 WNW 11 15 6 8 1024.9 - 0.0
15/09:07am 13.0 10.9 9.9 81 1.6 W 11 15 6 8 1025.0 - 0.0
15/09:00am 12.7 10.3 10.2 85 1.3 WNW 13 15 7 8 1025.0 1025.0 0.0
15/08:30am 11.7 9.0 8.9 83 1.4 WNW 13 15 7 8 1024.9 - 0.0
15/08:00am 10.3 7.5 8.7 90 0.8 WNW 13 17 7 9 1024.7 - 0.0
15/07:30am 9.4 6.5 8.2 92 0.6 WNW 13 17 7 9 1024.3 - 0.0
15/07:00am 8.5 6.3 7.7 95 0.4 W 9 13 5 7 1024.3 - 0.0
15/06:30am 8.2 5.6 7.6 96 0.3 W 11 13 6 7 1024.1 - 0.0
15/06:01am 7.7 4.6 7.1 96 0.3 WNW 13 13 7 7 1023.9 - 0.0
15/06:00am 7.6 4.4 7.0 96 0.3 WNW 13 13 7 7 1023.9 1023.9 0.0
15/05:30am 7.6 4.8 7.0 96 0.3 WNW 11 13 6 7 1023.9 - 0.0
15/05:00am 8.3 5.3 7.7 96 0.3 NW 13 15 7 8 1023.6 - 0.0
15/04:30am 8.5 6.3 7.9 96 0.3 W 9 11 5 6 1023.6 - 0.0
15/04:00am 9.1 6.3 8.5 96 0.3 WNW 13 13 7 7 1023.5 - 0.0
15/03:30am 9.0 6.9 8.4 96 0.3 W 9 11 5 6 1023.4 - 0.0
15/03:01am 9.2 7.1 8.4 95 0.4 NW 9 9 5 5 1023.6 - 0.0
15/03:00am 9.2 7.1 8.4 95 0.4 NW 9 9 5 5 1023.6 1023.6 0.0
15/02:30am 8.9 6.9 8.5 97 0.2 NNW 9 11 5 6 1023.8 - 0.0
15/02:00am 8.3 6.7 7.9 97 0.2 SW 6 6 3 3 1023.9 - 0.0
15/01:30am 8.0 5.7 7.6 97 0.2 SSW 9 9 5 5 1024.0 - 0.0
15/01:20am 8.0 5.7 7.4 96 0.3 SW 9 11 5 6 1024.1 - 0.0
15/01:00am 7.4 3.9 7.0 97 0.2 WNW 15 17 8 9 1023.9 - 0.0
15/12:30am 8.2 5.3 8.0 99 0.1 WNW 13 15 7 8 1023.9 - 0.0
15/12:00am 8.9 6.9 8.5 97 0.2 NW 9 11 5 6 1024.0 1024.0 0.0
 
Date/Time
EST
Temp
°C
App
Temp
°C
Dew
Point
Rel
Hum
%
Delta-T
°C
Wind Press
QNH
hPa
Press
MSL
hPa
Rain
since 9 am
mm
Dir
 
Spd
km/h
Gust
km/h
Spd
kts
Gust
kts
14/11:30pm 8.4 6.7 8.2 99 0.1 WNW 7 9 4 5 1024.0 - 0.0
14/11:00pm 9.1 7.2 8.9 99 0.1 WNW 9 9 5 5 1024.2 - 0.0
14/10:30pm 8.6 6.9 8.2 97 0.2 WNW 7 9 4 5 1024.4 - 0.0
14/10:00pm 9.1 7.5 8.7 97 0.2 NW 7 9 4 5 1024.5 - 0.0
14/09:30pm 10.3 8.9 9.7 96 0.3 S 7 7 4 4 1024.4 - 0.0
14/09:00pm 10.2 9.1 9.8 97 0.2 S 6 7 3 4 1024.4 1024.4 0.0
14/08:30pm 10.5 9.4 9.9 96 0.3 SSE 6 6 3 3 1024.3 - 0.0
14/08:00pm 11.0 9.8 10.2 95 0.4 SSE 7 7 4 4 1024.2 - 0.0

Other Formats:

Comma delimited format used in spreadsheet applications
http://www.bom.gov.au/fwo/IDV60801/IDV60801.94907.axf

JavaScript Object Notation format (JSON) in row-major order
http://www.bom.gov.au/fwo/IDV60801/IDV60801.94907.json